sensor_id;sensor_type;location;lat;lon;timestamp;pressure;altitude;pressure_sealevel;temperature
12875;BMP180;6505;51.114;13.128;2022-12-26T00:02:12;99100.00;;;16.30
12875;BMP180;6505;51.114;13.128;2022-12-26T00:04:43;99103.00;;;16.30
12875;BMP180;6505;51.114;13.128;2022-12-26T00:07:18;99103.00;;;16.40
12875;BMP180;6505;51.114;13.128;2022-12-26T00:09:49;99085.00;;;16.40
12875;BMP180;6505;51.114;13.128;2022-12-26T00:12:17;99098.00;;;16.40
12875;BMP180;6505;51.114;13.128;2022-12-26T00:14:45;99080.00;;;16.40
12875;BMP180;6505;51.114;13.128;2022-12-26T00:17:16;99098.00;;;16.40
12875;BMP180;6505;51.114;13.128;2022-12-26T00:19:44;99087.00;;;16.40
12875;BMP180;6505;51.114;13.128;2022-12-26T00:22:15;99094.00;;;16.40
12875;BMP180;6505;51.114;13.128;2022-12-26T00:24:46;99089.00;;;16.40
12875;BMP180;6505;51.114;13.128;2022-12-26T00:27:14;99087.00;;;16.40
12875;BMP180;6505;51.114;13.128;2022-12-26T00:29:47;99086.00;;;16.40
12875;BMP180;6505;51.114;13.128;2022-12-26T00:32:17;99087.00;;;16.40
12875;BMP180;6505;51.114;13.128;2022-12-26T00:34:48;99087.00;;;16.40
12875;BMP180;6505;51.114;13.128;2022-12-26T00:37:16;99096.00;;;16.40
12875;BMP180;6505;51.114;13.128;2022-12-26T00:39:44;99077.00;;;16.40
12875;BMP180;6505;51.114;13.128;2022-12-26T00:42:12;99085.00;;;16.40
12875;BMP180;6505;51.114;13.128;2022-12-26T00:44:41;99088.00;;;16.40
12875;BMP180;6505;51.114;13.128;2022-12-26T00:47:09;99078.00;;;16.40
12875;BMP180;6505;51.114;13.128;2022-12-26T00:49:41;99078.00;;;16.50
12875;BMP180;6505;51.114;13.128;2022-12-26T00:52:31;99085.00;;;16.40
12875;BMP180;6505;51.114;13.128;2022-12-26T00:55:00;99088.00;;;16.50
12875;BMP180;6505;51.114;13.128;2022-12-26T00:57:28;99096.00;;;16.50
12875;BMP180;6505;51.114;13.128;2022-12-26T00:59:56;99096.00;;;16.50
12875;BMP180;6505;51.114;13.128;2022-12-26T01:02:24;99090.00;;;16.50
12875;BMP180;6505;51.114;13.128;2022-12-26T01:05:11;99088.00;;;16.40
12875;BMP180;6505;51.114;13.128;2022-12-26T01:07:40;99098.00;;;16.50
12875;BMP180;6505;51.114;13.128;2022-12-26T01:10:28;99086.00;;;16.50
12875;BMP180;6505;51.114;13.128;2022-12-26T01:12:58;99101.00;;;16.50
12875;BMP180;6505;51.114;13.128;2022-12-26T01:15:28;99095.00;;;16.50
12875;BMP180;6505;51.114;13.128;2022-12-26T01:17:58;99092.00;;;16.50
12875;BMP180;6505;51.114;13.128;2022-12-26T01:20:28;99075.00;;;16.50
12875;BMP180;6505;51.114;13.128;2022-12-26T01:22:57;99098.00;;;16.50
12875;BMP180;6505;51.114;13.128;2022-12-26T01:25:28;99090.00;;;16.50
12875;BMP180;6505;51.114;13.128;2022-12-26T01:27:58;99082.00;;;16.50
12875;BMP180;6505;51.114;13.128;2022-12-26T01:30:27;99078.00;;;16.50
12875;BMP180;6505;51.114;13.128;2022-12-26T01:32:55;99066.00;;;16.50
12875;BMP180;6505;51.114;13.128;2022-12-26T01:35:23;99093.00;;;16.50
12875;BMP180;6505;51.114;13.128;2022-12-26T01:37:53;99089.00;;;16.50
12875;BMP180;6505;51.114;13.128;2022-12-26T01:40:23;99092.00;;;16.50
12875;BMP180;6505;51.114;13.128;2022-12-26T01:42:52;99103.00;;;16.60
12875;BMP180;6505;51.114;13.128;2022-12-26T01:45:29;99102.00;;;16.50
12875;BMP180;6505;51.114;13.128;2022-12-26T01:48:04;99104.00;;;16.50
12875;BMP180;6505;51.114;13.128;2022-12-26T01:50:46;99093.00;;;16.50
12875;BMP180;6505;51.114;13.128;2022-12-26T01:53:22;99083.00;;;16.50
12875;BMP180;6505;51.114;13.128;2022-12-26T01:56:00;99078.00;;;16.50
12875;BMP180;6505;51.114;13.128;2022-12-26T01:58:40;99080.00;;;16.50
12875;BMP180;6505;51.114;13.128;2022-12-26T02:01:14;99071.00;;;16.60
12875;BMP180;6505;51.114;13.128;2022-12-26T02:03:45;99068.00;;;16.60
12875;BMP180;6505;51.114;13.128;2022-12-26T02:06:32;99067.00;;;16.60
12875;BMP180;6505;51.114;13.128;2022-12-26T02:09:04;99062.00;;;16.60
12875;BMP180;6505;51.114;13.128;2022-12-26T02:11:43;99083.00;;;16.50
12875;BMP180;6505;51.114;13.128;2022-12-26T02:18:16;99093.00;;;16.50
12875;BMP180;6505;51.114;13.128;2022-12-26T02:21:03;99086.00;;;16.50
12875;BMP180;6505;51.114;13.128;2022-12-26T02:23:59;99086.00;;;16.50
12875;BMP180;6505;51.114;13.128;2022-12-26T02:27:09;99070.00;;;16.50
12875;BMP180;6505;51.114;13.128;2022-12-26T02:30:31;99071.00;;;16.50
12875;BMP180;6505;51.114;13.128;2022-12-26T02:33:39;99087.00;;;16.50
12875;BMP180;6505;51.114;13.128;2022-12-26T02:36:45;99081.00;;;16.50
12875;BMP180;6505;51.114;13.128;2022-12-26T02:39:34;99088.00;;;16.50
12875;BMP180;6505;51.114;13.128;2022-12-26T02:42:27;99088.00;;;16.50
12875;BMP180;6505;51.114;13.128;2022-12-26T02:45:08;99079.00;;;16.50
12875;BMP180;6505;51.114;13.128;2022-12-26T02:48:12;99072.00;;;16.50
12875;BMP180;6505;51.114;13.128;2022-12-26T02:50:57;99054.00;;;16.50
12875;BMP180;6505;51.114;13.128;2022-12-26T02:54:01;99056.00;;;16.50
12875;BMP180;6505;51.114;13.128;2022-12-26T02:56:55;99056.00;;;16.60
12875;BMP180;6505;51.114;13.128;2022-12-26T02:59:51;99060.00;;;16.50
12875;BMP180;6505;51.114;13.128;2022-12-26T03:02:45;99072.00;;;16.50
12875;BMP180;6505;51.114;13.128;2022-12-26T03:05:40;99071.00;;;16.50
12875;BMP180;6505;51.114;13.128;2022-12-26T03:08:33;99070.00;;;16.60
12875;BMP180;6505;51.114;13.128;2022-12-26T03:11:19;99061.00;;;16.60
12875;BMP180;6505;51.114;13.128;2022-12-26T03:14:16;99061.00;;;16.60
12875;BMP180;6505;51.114;13.128;2022-12-26T03:16:51;99060.00;;;16.60
12875;BMP180;6505;51.114;13.128;2022-12-26T03:19:45;99069.00;;;16.60
12875;BMP180;6505;51.114;13.128;2022-12-26T03:22:36;99064.00;;;16.60
12875;BMP180;6505;51.114;13.128;2022-12-26T03:25:18;99065.00;;;16.60
12875;BMP180;6505;51.114;13.128;2022-12-26T03:28:10;99064.00;;;16.70
12875;BMP180;6505;51.114;13.128;2022-12-26T03:30:41;99056.00;;;16.70
12875;BMP180;6505;51.114;13.128;2022-12-26T03:33:23;99055.00;;;16.60
12875;BMP180;6505;51.114;13.128;2022-12-26T03:36:14;99074.00;;;16.60
12875;BMP180;6505;51.114;13.128;2022-12-26T03:38:56;99083.00;;;16.60
12875;BMP180;6505;51.114;13.128;2022-12-26T03:41:47;99081.00;;;16.60
12875;BMP180;6505;51.114;13.128;2022-12-26T03:45:18;99076.00;;;16.60
12875;BMP180;6505;51.114;13.128;2022-12-26T03:48:20;99070.00;;;16.60
12875;BMP180;6505;51.114;13.128;2022-12-26T03:51:17;99065.00;;;16.60
12875;BMP180;6505;51.114;13.128;2022-12-26T03:54:20;99076.00;;;16.60
12875;BMP180;6505;51.114;13.128;2022-12-26T03:57:17;99080.00;;;16.60
12875;BMP180;6505;51.114;13.128;2022-12-26T04:00:14;99058.00;;;16.70
12875;BMP180;6505;51.114;13.128;2022-12-26T04:03:07;99074.00;;;16.60
12875;BMP180;6505;51.114;13.128;2022-12-26T04:06:00;99061.00;;;16.70
12875;BMP180;6505;51.114;13.128;2022-12-26T04:08:53;99093.00;;;16.60
12875;BMP180;6505;51.114;13.128;2022-12-26T04:11:44;99090.00;;;16.70
12875;BMP180;6505;51.114;13.128;2022-12-26T04:14:50;99104.00;;;16.60
12875;BMP180;6505;51.114;13.128;2022-12-26T04:17:45;99118.00;;;16.60
12875;BMP180;6505;51.114;13.128;2022-12-26T04:20:43;99118.00;;;16.60
12875;BMP180;6505;51.114;13.128;2022-12-26T04:23:22;99122.00;;;16.60
12875;BMP180;6505;51.114;13.128;2022-12-26T04:26:16;99117.00;;;16.70
12875;BMP180;6505;51.114;13.128;2022-12-26T04:29:09;99121.00;;;16.70
12875;BMP180;6505;51.114;13.128;2022-12-26T04:32:06;99123.00;;;16.70
12875;BMP180;6505;51.114;13.128;2022-12-26T04:35:04;99106.00;;;16.70
12875;BMP180;6505;51.114;13.128;2022-12-26T04:37:55;99098.00;;;16.70
12875;BMP180;6505;51.114;13.128;2022-12-26T04:40:49;99097.00;;;16.70
12875;BMP180;6505;51.114;13.128;2022-12-26T04:43:54;99111.00;;;16.70
12875;BMP180;6505;51.114;13.128;2022-12-26T04:46:32;99114.00;;;16.70
12875;BMP180;6505;51.114;13.128;2022-12-26T04:49:07;99107.00;;;16.70
12875;BMP180;6505;51.114;13.128;2022-12-26T04:52:00;99095.00;;;16.70
12875;BMP180;6505;51.114;13.128;2022-12-26T04:54:32;99093.00;;;16.70
12875;BMP180;6505;51.114;13.128;2022-12-26T04:57:00;99093.00;;;16.70
12875;BMP180;6505;51.114;13.128;2022-12-26T04:59:28;99081.00;;;16.80
12875;BMP180;6505;51.114;13.128;2022-12-26T05:02:00;99080.00;;;16.70
12875;BMP180;6505;51.114;13.128;2022-12-26T05:05:00;99070.00;;;16.80
12875;BMP180;6505;51.114;13.128;2022-12-26T05:07:47;99070.00;;;16.80
12875;BMP180;6505;51.114;13.128;2022-12-26T05:10:33;99084.00;;;16.80
12875;BMP180;6505;51.114;13.128;2022-12-26T05:13:01;99093.00;;;16.80
12875;BMP180;6505;51.114;13.128;2022-12-26T05:15:32;99079.00;;;16.80
12875;BMP180;6505;51.114;13.128;2022-12-26T05:18:27;99093.00;;;16.80
12875;BMP180;6505;51.114;13.128;2022-12-26T05:21:17;99097.00;;;16.80
12875;BMP180;6505;51.114;13.128;2022-12-26T05:24:04;99105.00;;;16.80
12875;BMP180;6505;51.114;13.128;2022-12-26T05:26:53;99098.00;;;16.80
12875;BMP180;6505;51.114;13.128;2022-12-26T05:29:41;99100.00;;;16.80
12875;BMP180;6505;51.114;13.128;2022-12-26T05:32:09;99116.00;;;16.80
12875;BMP180;6505;51.114;13.128;2022-12-26T05:34:44;99117.00;;;16.80
12875;BMP180;6505;51.114;13.128;2022-12-26T05:37:12;99131.00;;;16.80
12875;BMP180;6505;51.114;13.128;2022-12-26T05:39:42;99127.00;;;16.80
12875;BMP180;6505;51.114;13.128;2022-12-26T05:42:11;99132.00;;;16.90
12875;BMP180;6505;51.114;13.128;2022-12-26T05:44:43;99133.00;;;16.80
12875;BMP180;6505;51.114;13.128;2022-12-26T05:47:13;99129.00;;;16.90
12875;BMP180;6505;51.114;13.128;2022-12-26T05:49:43;99120.00;;;16.90
12875;BMP180;6505;51.114;13.128;2022-12-26T05:52:16;99117.00;;;16.90
12875;BMP180;6505;51.114;13.128;2022-12-26T05:54:46;99111.00;;;16.90
12875;BMP180;6505;51.114;13.128;2022-12-26T05:57:13;99104.00;;;16.90
12875;BMP180;6505;51.114;13.128;2022-12-26T05:59:48;99105.00;;;16.90
12875;BMP180;6505;51.114;13.128;2022-12-26T06:02:18;99102.00;;;16.90
12875;BMP180;6505;51.114;13.128;2022-12-26T06:04:47;99091.00;;;16.90
12875;BMP180;6505;51.114;13.128;2022-12-26T06:07:17;99091.00;;;17.00
12875;BMP180;6505;51.114;13.128;2022-12-26T06:09:47;99086.00;;;16.90
12875;BMP180;6505;51.114;13.128;2022-12-26T06:12:14;99071.00;;;17.00
12875;BMP180;6505;51.114;13.128;2022-12-26T06:14:46;99083.00;;;16.90
12875;BMP180;6505;51.114;13.128;2022-12-26T06:17:13;99066.00;;;17.00
12875;BMP180;6505;51.114;13.128;2022-12-26T06:19:44;99080.00;;;17.00
12875;BMP180;6505;51.114;13.128;2022-12-26T06:22:18;99085.00;;;16.90
12875;BMP180;6505;51.114;13.128;2022-12-26T06:24:48;99101.00;;;17.00
12875;BMP180;6505;51.114;13.128;2022-12-26T06:27:19;99097.00;;;17.00
12875;BMP180;6505;51.114;13.128;2022-12-26T06:29:49;99103.00;;;17.00
12875;BMP180;6505;51.114;13.128;2022-12-26T06:32:19;99091.00;;;17.00
12875;BMP180;6505;51.114;13.128;2022-12-26T06:34:49;99093.00;;;17.00
12875;BMP180;6505;51.114;13.128;2022-12-26T06:37:23;99119.00;;;17.00
12875;BMP180;6505;51.114;13.128;2022-12-26T06:39:53;99126.00;;;17.00
12875;BMP180;6505;51.114;13.128;2022-12-26T06:42:23;99120.00;;;17.00
12875;BMP180;6505;51.114;13.128;2022-12-26T06:44:54;99140.00;;;17.00
12875;BMP180;6505;51.114;13.128;2022-12-26T06:47:24;99121.00;;;17.00
12875;BMP180;6505;51.114;13.128;2022-12-26T06:49:52;99123.00;;;17.00
12875;BMP180;6505;51.114;13.128;2022-12-26T06:52:21;99144.00;;;17.00
12875;BMP180;6505;51.114;13.128;2022-12-26T06:54:49;99145.00;;;17.00
12875;BMP180;6505;51.114;13.128;2022-12-26T06:57:18;99137.00;;;17.00
12875;BMP180;6505;51.114;13.128;2022-12-26T06:59:47;99135.00;;;17.00
12875;BMP180;6505;51.114;13.128;2022-12-26T07:02:15;99133.00;;;17.00
12875;BMP180;6505;51.114;13.128;2022-12-26T07:04:43;99134.00;;;17.00
12875;BMP180;6505;51.114;13.128;2022-12-26T07:07:12;99132.00;;;17.00
12875;BMP180;6505;51.114;13.128;2022-12-26T07:09:45;99134.00;;;17.00
12875;BMP180;6505;51.114;13.128;2022-12-26T07:12:15;99136.00;;;17.00
12875;BMP180;6505;51.114;13.128;2022-12-26T07:14:49;99147.00;;;17.00
12875;BMP180;6505;51.114;13.128;2022-12-26T07:17:27;99158.00;;;17.00
12875;BMP180;6505;51.114;13.128;2022-12-26T07:19:55;99139.00;;;17.00
12875;BMP180;6505;51.114;13.128;2022-12-26T07:22:25;99136.00;;;17.00
12875;BMP180;6505;51.114;13.128;2022-12-26T07:24:59;99140.00;;;17.00
12875;BMP180;6505;51.114;13.128;2022-12-26T07:27:29;99147.00;;;17.00
12875;BMP180;6505;51.114;13.128;2022-12-26T07:29:57;99130.00;;;17.00
12875;BMP180;6505;51.114;13.128;2022-12-26T07:32:27;99142.00;;;17.00
12875;BMP180;6505;51.114;13.128;2022-12-26T07:34:55;99140.00;;;17.00
12875;BMP180;6505;51.114;13.128;2022-12-26T07:37:23;99152.00;;;17.00
12875;BMP180;6505;51.114;13.128;2022-12-26T07:39:51;99149.00;;;17.00
12875;BMP180;6505;51.114;13.128;2022-12-26T07:42:28;99156.00;;;17.00
12875;BMP180;6505;51.114;13.128;2022-12-26T07:44:58;99158.00;;;17.00
12875;BMP180;6505;51.114;13.128;2022-12-26T07:47:28;99156.00;;;17.00
12875;BMP180;6505;51.114;13.128;2022-12-26T07:49:56;99153.00;;;17.00
12875;BMP180;6505;51.114;13.128;2022-12-26T07:52:24;99150.00;;;17.00
12875;BMP180;6505;51.114;13.128;2022-12-26T07:54:54;99151.00;;;17.00
12875;BMP180;6505;51.114;13.128;2022-12-26T07:57:24;99150.00;;;17.00
12875;BMP180;6505;51.114;13.128;2022-12-26T08:00:16;99147.00;;;16.90
12875;BMP180;6505;51.114;13.128;2022-12-26T08:02:49;99149.00;;;16.90
12875;BMP180;6505;51.114;13.128;2022-12-26T08:05:19;99151.00;;;17.00
12875;BMP180;6505;51.114;13.128;2022-12-26T08:07:49;99174.00;;;17.00
12875;BMP180;6505;51.114;13.128;2022-12-26T08:10:18;99172.00;;;17.00
12875;BMP180;6505;51.114;13.128;2022-12-26T08:12:47;99171.00;;;17.00
12875;BMP180;6505;51.114;13.128;2022-12-26T08:15:17;99188.00;;;17.00
12875;BMP180;6505;51.114;13.128;2022-12-26T08:17:45;99188.00;;;17.00
12875;BMP180;6505;51.114;13.128;2022-12-26T08:20:14;99190.00;;;17.00
12875;BMP180;6505;51.114;13.128;2022-12-26T08:22:44;99184.00;;;17.00
12875;BMP180;6505;51.114;13.128;2022-12-26T08:25:12;99182.00;;;17.00
12875;BMP180;6505;51.114;13.128;2022-12-26T08:27:49;99184.00;;;17.00
12875;BMP180;6505;51.114;13.128;2022-12-26T08:30:20;99191.00;;;17.00
12875;BMP180;6505;51.114;13.128;2022-12-26T08:32:51;99182.00;;;17.00
12875;BMP180;6505;51.114;13.128;2022-12-26T08:35:22;99186.00;;;17.00
12875;BMP180;6505;51.114;13.128;2022-12-26T08:37:53;99192.00;;;17.00
12875;BMP180;6505;51.114;13.128;2022-12-26T08:40:22;99198.00;;;17.00
12875;BMP180;6505;51.114;13.128;2022-12-26T08:43:09;99207.00;;;17.00
12875;BMP180;6505;51.114;13.128;2022-12-26T08:46:00;99190.00;;;17.00
12875;BMP180;6505;51.114;13.128;2022-12-26T08:48:30;99192.00;;;17.00
12875;BMP180;6505;51.114;13.128;2022-12-26T08:51:02;99189.00;;;17.00
12875;BMP180;6505;51.114;13.128;2022-12-26T08:53:33;99178.00;;;17.00
12875;BMP180;6505;51.114;13.128;2022-12-26T08:56:06;99169.00;;;17.00
12875;BMP180;6505;51.114;13.128;2022-12-26T08:58:37;99193.00;;;17.00
12875;BMP180;6505;51.114;13.128;2022-12-26T09:01:09;99179.00;;;17.00
12875;BMP180;6505;51.114;13.128;2022-12-26T09:03:37;99184.00;;;17.10
12875;BMP180;6505;51.114;13.128;2022-12-26T09:06:10;99203.00;;;17.00
12875;BMP180;6505;51.114;13.128;2022-12-26T09:08:44;99199.00;;;17.10
12875;BMP180;6505;51.114;13.128;2022-12-26T09:11:18;99210.00;;;17.00
12875;BMP180;6505;51.114;13.128;2022-12-26T09:13:46;99212.00;;;17.10
12875;BMP180;6505;51.114;13.128;2022-12-26T09:16:21;99223.00;;;17.10
12875;BMP180;6505;51.114;13.128;2022-12-26T09:18:55;99221.00;;;17.10
12875;BMP180;6505;51.114;13.128;2022-12-26T09:21:24;99225.00;;;17.10
12875;BMP180;6505;51.114;13.128;2022-12-26T09:23:56;99221.00;;;17.10
12875;BMP180;6505;51.114;13.128;2022-12-26T09:26:25;99221.00;;;17.10
12875;BMP180;6505;51.114;13.128;2022-12-26T09:28:54;99226.00;;;17.10
12875;BMP180;6505;51.114;13.128;2022-12-26T09:31:31;99211.00;;;17.10
12875;BMP180;6505;51.114;13.128;2022-12-26T09:34:02;99212.00;;;17.10
12875;BMP180;6505;51.114;13.128;2022-12-26T09:36:36;99214.00;;;17.10
12875;BMP180;6505;51.114;13.128;2022-12-26T09:39:07;99211.00;;;17.20
12875;BMP180;6505;51.114;13.128;2022-12-26T09:41:50;99211.00;;;17.10
12875;BMP180;6505;51.114;13.128;2022-12-26T09:44:30;99212.00;;;17.10
12875;BMP180;6505;51.114;13.128;2022-12-26T09:50:25;99196.00;;;17.10
12875;BMP180;6505;51.114;13.128;2022-12-26T09:52:57;99190.00;;;17.10
12875;BMP180;6505;51.114;13.128;2022-12-26T09:55:36;99198.00;;;17.10
12875;BMP180;6505;51.114;13.128;2022-12-26T09:58:25;99197.00;;;17.10
12875;BMP180;6505;51.114;13.128;2022-12-26T10:01:00;99208.00;;;17.10
12875;BMP180;6505;51.114;13.128;2022-12-26T10:03:37;99196.00;;;17.20
12875;BMP180;6505;51.114;13.128;2022-12-26T10:06:17;99179.00;;;17.10
12875;BMP180;6505;51.114;13.128;2022-12-26T10:09:16;99194.00;;;17.10
12875;BMP180;6505;51.114;13.128;2022-12-26T10:12:37;99215.00;;;17.10
12875;BMP180;6505;51.114;13.128;2022-12-26T10:18:39;99206.00;;;17.10
12875;BMP180;6505;51.114;13.128;2022-12-26T10:21:37;99201.00;;;17.10
12875;BMP180;6505;51.114;13.128;2022-12-26T10:24:15;99199.00;;;17.10
12875;BMP180;6505;51.114;13.128;2022-12-26T10:26:50;99197.00;;;17.20
12875;BMP180;6505;51.114;13.128;2022-12-26T10:29:25;99190.00;;;17.20
12875;BMP180;6505;51.114;13.128;2022-12-26T10:32:03;99196.00;;;17.20
12875;BMP180;6505;51.114;13.128;2022-12-26T10:34:39;99175.00;;;17.20
12875;BMP180;6505;51.114;13.128;2022-12-26T10:37:27;99191.00;;;17.20
12875;BMP180;6505;51.114;13.128;2022-12-26T10:40:06;99195.00;;;17.20
12875;BMP180;6505;51.114;13.128;2022-12-26T10:42:48;99192.00;;;17.20
12875;BMP180;6505;51.114;13.128;2022-12-26T10:45:28;99199.00;;;17.20
12875;BMP180;6505;51.114;13.128;2022-12-26T10:48:01;99203.00;;;17.30
12875;BMP180;6505;51.114;13.128;2022-12-26T10:50:32;99192.00;;;17.30
12875;BMP180;6505;51.114;13.128;2022-12-26T10:53:06;99189.00;;;17.30
12875;BMP180;6505;51.114;13.128;2022-12-26T10:55:37;99198.00;;;17.30
12875;BMP180;6505;51.114;13.128;2022-12-26T10:58:20;99189.00;;;17.30
12875;BMP180;6505;51.114;13.128;2022-12-26T11:00:52;99184.00;;;17.20
12875;BMP180;6505;51.114;13.128;2022-12-26T11:03:21;99178.00;;;17.30
12875;BMP180;6505;51.114;13.128;2022-12-26T11:05:55;99188.00;;;17.30
12875;BMP180;6505;51.114;13.128;2022-12-26T11:08:39;99185.00;;;17.30
12875;BMP180;6505;51.114;13.128;2022-12-26T11:11:23;99191.00;;;17.30
12875;BMP180;6505;51.114;13.128;2022-12-26T11:14:35;99196.00;;;17.30
12875;BMP180;6505;51.114;13.128;2022-12-26T11:17:08;99176.00;;;17.30
12875;BMP180;6505;51.114;13.128;2022-12-26T11:19:41;99194.00;;;17.30
12875;BMP180;6505;51.114;13.128;2022-12-26T11:22:27;99193.00;;;17.30
12875;BMP180;6505;51.114;13.128;2022-12-26T11:25:16;99176.00;;;17.30
12875;BMP180;6505;51.114;13.128;2022-12-26T11:27:48;99184.00;;;17.30
12875;BMP180;6505;51.114;13.128;2022-12-26T11:30:33;99191.00;;;17.30
12875;BMP180;6505;51.114;13.128;2022-12-26T11:33:40;99176.00;;;17.30
12875;BMP180;6505;51.114;13.128;2022-12-26T11:36:20;99173.00;;;17.30
12875;BMP180;6505;51.114;13.128;2022-12-26T11:38:57;99163.00;;;17.30
12875;BMP180;6505;51.114;13.128;2022-12-26T11:41:37;99154.00;;;17.30
12875;BMP180;6505;51.114;13.128;2022-12-26T11:44:35;99169.00;;;17.30
12875;BMP180;6505;51.114;13.128;2022-12-26T11:47:10;99166.00;;;17.30
12875;BMP180;6505;51.114;13.128;2022-12-26T11:50:00;99175.00;;;17.30
12875;BMP180;6505;51.114;13.128;2022-12-26T11:52:36;99173.00;;;17.40
12875;BMP180;6505;51.114;13.128;2022-12-26T11:55:31;99180.00;;;17.30
12875;BMP180;6505;51.114;13.128;2022-12-26T11:58:16;99175.00;;;17.30
12875;BMP180;6505;51.114;13.128;2022-12-26T12:01:19;99161.00;;;17.30
12875;BMP180;6505;51.114;13.128;2022-12-26T12:03:48;99161.00;;;17.40
12875;BMP180;6505;51.114;13.128;2022-12-26T12:06:41;99180.00;;;17.30
12875;BMP180;6505;51.114;13.128;2022-12-26T12:09:25;99168.00;;;17.30
12875;BMP180;6505;51.114;13.128;2022-12-26T12:12:07;99169.00;;;17.40
12875;BMP180;6505;51.114;13.128;2022-12-26T12:14:58;99162.00;;;17.30
12875;BMP180;6505;51.114;13.128;2022-12-26T12:17:45;99162.00;;;17.30
12875;BMP180;6505;51.114;13.128;2022-12-26T12:20:28;99171.00;;;17.40
12875;BMP180;6505;51.114;13.128;2022-12-26T12:23:26;99168.00;;;17.40
12875;BMP180;6505;51.114;13.128;2022-12-26T12:26:08;99246.00;;;17.40
12875;BMP180;6505;51.114;13.128;2022-12-26T12:29:18;99257.00;;;17.30
12875;BMP180;6505;51.114;13.128;2022-12-26T12:32:06;99261.00;;;17.30
12875;BMP180;6505;51.114;13.128;2022-12-26T12:35:05;99247.00;;;17.30
12875;BMP180;6505;51.114;13.128;2022-12-26T12:37:53;99244.00;;;17.30
12875;BMP180;6505;51.114;13.128;2022-12-26T12:40:34;99248.00;;;17.30
12875;BMP180;6505;51.114;13.128;2022-12-26T12:43:17;99250.00;;;17.20
12875;BMP180;6505;51.114;13.128;2022-12-26T12:46:08;99237.00;;;17.20
12875;BMP180;6505;51.114;13.128;2022-12-26T12:48:55;99243.00;;;17.20
12875;BMP180;6505;51.114;13.128;2022-12-26T12:51:35;99254.00;;;17.20
12875;BMP180;6505;51.114;13.128;2022-12-26T12:54:44;99253.00;;;17.20
12875;BMP180;6505;51.114;13.128;2022-12-26T12:57:33;99246.00;;;17.20
12875;BMP180;6505;51.114;13.128;2022-12-26T13:00:20;99258.00;;;17.20
12875;BMP180;6505;51.114;13.128;2022-12-26T13:03:10;99260.00;;;17.20
12875;BMP180;6505;51.114;13.128;2022-12-26T13:05:56;99256.00;;;17.20
12875;BMP180;6505;51.114;13.128;2022-12-26T13:08:29;99252.00;;;17.20
12875;BMP180;6505;51.114;13.128;2022-12-26T13:11:12;99237.00;;;17.20
12875;BMP180;6505;51.114;13.128;2022-12-26T13:13:49;99250.00;;;17.20
12875;BMP180;6505;51.114;13.128;2022-12-26T13:16:24;99264.00;;;17.20
12875;BMP180;6505;51.114;13.128;2022-12-26T13:19:03;99241.00;;;17.20
12875;BMP180;6505;51.114;13.128;2022-12-26T13:21:59;99260.00;;;17.10
12875;BMP180;6505;51.114;13.128;2022-12-26T13:24:33;99248.00;;;17.20
12875;BMP180;6505;51.114;13.128;2022-12-26T13:27:10;99257.00;;;17.20
12875;BMP180;6505;51.114;13.128;2022-12-26T13:29:47;99255.00;;;17.20
12875;BMP180;6505;51.114;13.128;2022-12-26T13:32:22;99261.00;;;17.10
12875;BMP180;6505;51.114;13.128;2022-12-26T13:34:58;99260.00;;;17.20
12875;BMP180;6505;51.114;13.128;2022-12-26T13:37:56;99255.00;;;17.10
12875;BMP180;6505;51.114;13.128;2022-12-26T13:40:29;99257.00;;;17.10
12875;BMP180;6505;51.114;13.128;2022-12-26T13:43:06;99249.00;;;17.10
12875;BMP180;6505;51.114;13.128;2022-12-26T13:45:55;99226.00;;;17.10
12875;BMP180;6505;51.114;13.128;2022-12-26T13:48:57;99249.00;;;17.00
12875;BMP180;6505;51.114;13.128;2022-12-26T13:51:53;99253.00;;;17.00
12875;BMP180;6505;51.114;13.128;2022-12-26T13:54:25;99255.00;;;17.00
12875;BMP180;6505;51.114;13.128;2022-12-26T13:57:35;99256.00;;;17.00
12875;BMP180;6505;51.114;13.128;2022-12-26T14:00:21;99247.00;;;17.00
12875;BMP180;6505;51.114;13.128;2022-12-26T14:03:36;99248.00;;;17.00
12875;BMP180;6505;51.114;13.128;2022-12-26T14:06:45;99251.00;;;17.00
12875;BMP180;6505;51.114;13.128;2022-12-26T14:09:40;99251.00;;;16.90
12875;BMP180;6505;51.114;13.128;2022-12-26T14:12:41;99252.00;;;16.90
12875;BMP180;6505;51.114;13.128;2022-12-26T14:15:38;99248.00;;;16.90
12875;BMP180;6505;51.114;13.128;2022-12-26T14:18:37;99241.00;;;16.90
12875;BMP180;6505;51.114;13.128;2022-12-26T14:21:38;99242.00;;;16.90
12875;BMP180;6505;51.114;13.128;2022-12-26T14:24:29;99246.00;;;16.90
12875;BMP180;6505;51.114;13.128;2022-12-26T14:27:26;99244.00;;;16.90
12875;BMP180;6505;51.114;13.128;2022-12-26T14:30:20;99247.00;;;16.90
12875;BMP180;6505;51.114;13.128;2022-12-26T14:33:10;99238.00;;;16.90
12875;BMP180;6505;51.114;13.128;2022-12-26T14:36:13;99253.00;;;16.90
12875;BMP180;6505;51.114;13.128;2022-12-26T14:38:55;99254.00;;;16.90
12875;BMP180;6505;51.114;13.128;2022-12-26T14:41:26;99260.00;;;16.90
12875;BMP180;6505;51.114;13.128;2022-12-26T14:44:41;99264.00;;;16.80
12875;BMP180;6505;51.114;13.128;2022-12-26T14:47:37;99269.00;;;16.70
12875;BMP180;6505;51.114;13.128;2022-12-26T14:50:39;99271.00;;;16.80
12875;BMP180;6505;51.114;13.128;2022-12-26T14:53:39;99266.00;;;16.80
12875;BMP180;6505;51.114;13.128;2022-12-26T14:56:33;99248.00;;;16.80
12875;BMP180;6505;51.114;13.128;2022-12-26T14:59:33;99261.00;;;16.80
12875;BMP180;6505;51.114;13.128;2022-12-26T15:02:37;99262.00;;;16.70
12875;BMP180;6505;51.114;13.128;2022-12-26T15:05:26;99256.00;;;16.80
12875;BMP180;6505;51.114;13.128;2022-12-26T15:08:49;99264.00;;;16.70
12875;BMP180;6505;51.114;13.128;2022-12-26T15:16:00;99284.00;;;16.70
12875;BMP180;6505;51.114;13.128;2022-12-26T15:23:00;99285.00;;;16.60
12875;BMP180;6505;51.114;13.128;2022-12-26T15:25:58;99289.00;;;16.60
12875;BMP180;6505;51.114;13.128;2022-12-26T15:29:14;99280.00;;;16.60
12875;BMP180;6505;51.114;13.128;2022-12-26T15:32:00;99286.00;;;16.60
12875;BMP180;6505;51.114;13.128;2022-12-26T15:34:53;99285.00;;;16.60
12875;BMP180;6505;51.114;13.128;2022-12-26T15:38:13;99280.00;;;16.60
12875;BMP180;6505;51.114;13.128;2022-12-26T15:41:00;99271.00;;;16.60
12875;BMP180;6505;51.114;13.128;2022-12-26T15:44:18;99286.00;;;16.60
12875;BMP180;6505;51.114;13.128;2022-12-26T15:47:16;99274.00;;;16.60
12875;BMP180;6505;51.114;13.128;2022-12-26T15:50:19;99275.00;;;16.60